Time;durP1;ratioP1;P1;durP2;ratioP2;P2;SDS_P1;SDS_P2;PMS_P1;PMS_P2;Temp;Humidity;BMP_temperature;BMP_pressure;BME280_temperature;BME280_humidity;BME280_pressure;Samples;Min_cycle;Max_cycle;Signal;HPM_P1;HPM_P2
2023/06/23 00:01:22;;;;;;;0.47;0.22;;;;;;;15.72;100.00;100459.44;7395495;19;20026;-86
2023/06/23 00:03:48;;;;;;;3.17;0.40;;;;;;;15.79;100.00;100456.16;7397188;19;20107;-86
2023/06/23 00:06:15;;;;;;;2.47;0.70;;;;;;;15.97;100.00;100460.66;7397288;19;20022;-87
2023/06/23 00:08:42;;;;;;;0.60;0.57;;;;;;;16.43;100.00;100447.97;7396929;19;20018;-86
2023/06/23 00:11:10;;;;;;;1.23;0.68;;;;;;;16.09;100.00;100440.56;7397688;19;20025;-87
2023/06/23 00:13:37;;;;;;;0.93;0.43;;;;;;;16.14;100.00;100431.41;7394533;19;20025;-86
2023/06/23 00:16:04;;;;;;;0.73;0.22;;;;;;;16.05;100.00;100428.78;7392347;19;20018;-85
2023/06/23 00:18:41;;;;;;;1.40;0.55;;;;;;;16.12;100.00;100428.34;7396118;19;20094;-87
2023/06/23 00:21:10;;;;;;;3.08;0.28;;;;;;;15.84;100.00;100427.34;7399098;19;20010;-86
2023/06/23 00:23:36;;;;;;;2.85;1.00;;;;;;;16.20;100.00;100429.41;7394182;19;20014;-87
2023/06/23 00:26:07;;;;;;;1.15;0.73;;;;;;;16.01;100.00;100422.63;7393126;19;20568;-85
2023/06/23 00:28:34;;;;;;;1.88;0.77;;;;;;;15.92;100.00;100415.16;7394749;19;20002;-86
2023/06/23 00:31:01;;;;;;;0.63;0.35;;;;;;;15.49;100.00;100416.31;7399780;19;20041;-85
2023/06/23 00:33:27;;;;;;;1.73;0.32;;;;;;;16.07;100.00;100411.44;7394894;19;20011;-87
2023/06/23 00:35:54;;;;;;;1.05;0.57;;;;;;;15.63;100.00;100420.28;7392553;19;20014;-86
2023/06/23 00:38:20;;;;;;;1.80;0.15;;;;;;;15.47;100.00;100429.28;7399988;19;20014;-86
2023/06/23 00:40:46;;;;;;;1.73;0.52;;;;;;;15.08;100.00;100431.66;7397598;19;20370;-87
2023/06/23 00:43:12;;;;;;;0.80;0.63;;;;;;;15.35;100.00;100434.00;7396783;19;20099;-87
2023/06/23 00:45:40;;;;;;;2.13;1.08;;;;;;;15.49;100.00;100435.19;7393439;19;20014;-87
2023/06/23 00:48:06;;;;;;;1.92;0.50;;;;;;;16.51;100.00;100420.97;7396036;19;20019;-88
2023/06/23 00:50:34;;;;;;;1.30;0.63;;;;;;;16.26;100.00;100421.81;7397021;19;20018;-87
2023/06/23 00:53:02;;;;;;;1.52;0.40;;;;;;;15.67;100.00;100421.59;7394396;19;20014;-87
2023/06/23 00:55:28;;;;;;;0.93;0.63;;;;;;;15.48;100.00;100428.03;7392965;19;20074;-87
2023/06/23 00:57:56;;;;;;;0.70;0.30;;;;;;;15.64;100.00;100444.25;7394994;19;20022;-87
2023/06/23 01:00:24;;;;;;;1.65;0.77;;;;;;;15.58;100.00;100437.84;7395578;19;20481;-87
2023/06/23 01:02:58;;;;;;;3.80;0.95;;;;;;;15.17;100.00;100446.31;7394185;19;20011;-87
2023/06/23 01:05:37;;;;;;;1.25;0.50;;;;;;;15.33;100.00;100442.16;7396149;19;20066;-87
2023/06/23 01:08:09;;;;;;;8.25;0.50;;;;;;;15.57;100.00;100439.13;7399281;19;20050;-86
2023/06/23 01:10:51;;;;;;;4.88;1.60;;;;;;;15.30;100.00;100437.53;7397328;19;20369;-87
2023/06/23 01:13:53;;;;;;;4.60;0.73;;;;;;;15.84;100.00;100432.97;7393838;19;20040;-88
2023/06/23 01:16:32;;;;;;;3.13;0.57;;;;;;;15.40;100.00;100438.16;7393085;19;20347;-88
2023/06/23 01:19:09;;;;;;;3.50;0.93;;;;;;;15.33;100.00;100442.16;7394589;19;20014;-87
2023/06/23 01:22:02;;;;;;;0.98;0.88;;;;;;;15.11;100.00;100437.06;7394534;19;20030;-87
2023/06/23 01:24:47;;;;;;;1.65;0.75;;;;;;;18.02;100.00;100429.31;7393046;19;20015;-87
2023/06/23 01:27:33;;;;;;;0.77;0.38;;;;;;;18.09;100.00;100417.53;7395402;19;20022;-87
2023/06/23 01:30:02;;;;;;;1.00;0.30;;;;;;;15.54;100.00;100414.81;7397361;19;20021;-87
2023/06/23 01:32:39;;;;;;;1.02;0.63;;;;;;;15.68;100.00;100428.75;7393994;19;20041;-87
2023/06/23 01:35:13;;;;;;;1.23;0.57;;;;;;;14.76;100.00;100436.38;7394075;19;20018;-87
2023/06/23 01:37:44;;;;;;;0.47;0.47;;;;;;;14.75;100.00;100446.03;7396604;19;20018;-87
2023/06/23 01:40:17;;;;;;;0.88;0.45;;;;;;;14.66;100.00;100434.94;7393796;19;20014;-87
2023/06/23 01:42:54;;;;;;;3.22;0.63;;;;;;;14.52;100.00;100435.78;7394206;19;20021;-87
2023/06/23 01:45:23;;;;;;;1.70;0.43;;;;;;;14.46;100.00;100437.75;7393373;19;20034;-87
2023/06/23 01:47:50;;;;;;;0.98;0.30;;;;;;;14.44;100.00;100434.66;7393846;19;20010;-88
2023/06/23 01:50:18;;;;;;;5.15;0.60;;;;;;;14.45;100.00;100424.97;7395550;19;20018;-87
2023/06/23 01:52:46;;;;;;;0.95;0.38;;;;;;;14.63;100.00;100430.34;7394686;19;20043;-88
2023/06/23 01:55:14;;;;;;;2.90;0.70;;;;;;;14.65;100.00;100435.44;7392066;19;20013;-87
2023/06/23 01:57:42;;;;;;;2.65;0.55;;;;;;;14.52;100.00;100429.41;7394560;19;20018;-87
2023/06/23 02:00:13;;;;;;;2.88;0.70;;;;;;;14.69;100.00;100433.97;7394276;19;20018;-87
2023/06/23 02:02:40;;;;;;;;;;;;;;;14.49;100.00;100439.56;7393696;19;20018;-87
2023/06/23 02:05:09;;;;;;;1.58;0.57;;;;;;;14.69;100.00;100441.63;7392712;19;19926;-87
2023/06/23 02:07:38;;;;;;;1.38;0.75;;;;;;;14.38;100.00;100437.38;7395078;19;20014;-87
2023/06/23 02:10:06;;;;;;;0.45;0.45;;;;;;;14.29;100.00;100436.75;7393431;19;20023;-88
2023/06/23 02:12:35;;;;;;;2.30;0.20;;;;;;;14.26;100.00;100423.66;7391274;19;20011;-88
2023/06/23 02:15:05;;;;;;;0.50;0.50;;;;;;;14.93;100.00;100426.13;7390473;19;20007;-88
2023/06/23 02:17:31;;;;;;;1.55;0.60;;;;;;;14.87;100.00;100416.91;7393213;19;20508;-87
2023/06/23 02:19:59;;;;;;;0.38;0.32;;;;;;;14.91;100.00;100413.88;7392758;19;20021;-87
2023/06/23 02:22:30;;;;;;;1.13;0.90;;;;;;;14.87;100.00;100414.09;7392031;19;20618;-88
2023/06/23 02:24:57;;;;;;;0.43;0.43;;;;;;;15.07;100.00;100402.81;7390989;19;20115;-86
2023/06/23 02:27:24;;;;;;;1.27;0.90;;;;;;;15.22;100.00;100397.16;7392766;19;20038;-87
2023/06/23 02:29:50;;;;;;;1.60;0.80;;;;;;;15.00;100.00;100397.66;7388646;19;20010;-87
2023/06/23 02:32:19;;;;;;;1.27;0.57;;;;;;;15.03;100.00;100391.06;7391568;19;20037;-87
2023/06/23 02:34:49;;;;;;;5.90;0.30;;;;;;;14.67;100.00;100394.47;7391772;19;20015;-87
2023/06/23 02:37:22;;;;;;;1.58;0.38;;;;;;;14.21;100.00;100399.13;7394469;19;20010;-87
2023/06/23 02:39:58;;;;;;;3.42;0.75;;;;;;;14.35;100.00;100406.75;7394412;19;20015;-87
2023/06/23 02:42:32;;;;;;;2.90;0.65;;;;;;;14.26;100.00;100412.47;7393066;19;20030;-87
2023/06/23 02:45:02;;;;;;;0.38;0.38;;;;;;;14.35;100.00;100417.97;7389893;19;20011;-87
2023/06/23 02:47:34;;;;;;;2.28;0.98;;;;;;;15.20;100.00;100417.25;7391207;19;20055;-87
2023/06/23 02:50:04;;;;;;;1.05;0.35;;;;;;;14.94;100.00;100427.66;7394285;19;20025;-87
2023/06/23 02:52:34;;;;;;;0.88;0.75;;;;;;;14.83;100.00;100433.16;7391879;19;20082;-87
2023/06/23 02:55:04;;;;;;;1.85;0.80;;;;;;;14.44;100.00;100434.66;7391009;19;20480;-87
2023/06/23 02:57:33;;;;;;;1.70;1.02;;;;;;;14.00;100.00;100445.94;7391048;19;20022;-88
2023/06/23 03:00:03;;;;;;;1.40;0.57;;;;;;;14.47;100.00;100447.69;7392094;19;20389;-87
2023/06/23 03:02:31;;;;;;;;;;;;;;;14.39;100.00;100443.75;7393706;19;20081;-87
2023/06/23 03:04:58;;;;;;;1.02;0.50;;;;;;;14.17;100.00;100443.38;7391812;19;19974;-87
2023/06/23 03:07:25;;;;;;;5.28;0.90;;;;;;;13.99;100.00;100443.63;7395702;19;20082;-87
2023/06/23 03:09:51;;;;;;;1.10;0.63;;;;;;;14.35;100.00;100443.19;7394017;19;20015;-87
2023/06/23 03:12:20;;;;;;;1.77;0.60;;;;;;;14.33;100.00;100452.09;7399191;19;20015;-87
2023/06/23 03:14:47;;;;;;;0.57;0.20;;;;;;;14.48;100.00;100446.44;7391769;19;20767;-87
2023/06/23 03:17:22;;;;;;;1.15;0.30;;;;;;;14.26;100.00;100446.06;7394610;19;20018;-87
2023/06/23 03:19:55;;;;;;;1.80;0.65;;;;;;;15.40;100.00;100452.19;7399648;19;20015;-87
2023/06/23 03:22:28;;;;;;;0.60;0.20;;;;;;;15.74;100.00;100437.97;7394302;19;20107;-87
2023/06/23 03:25:02;;;;;;;1.60;0.52;;;;;;;15.45;100.00;100431.84;7390630;19;20018;-87
2023/06/23 03:27:37;;;;;;;1.95;0.63;;;;;;;15.06;100.00;100448.22;7390099;19;20480;-87
2023/06/23 03:30:12;;;;;;;2.22;0.93;;;;;;;16.36;100.00;100448.44;7390359;19;20099;-86
2023/06/23 03:32:45;;;;;;;2.50;0.95;;;;;;;16.51;100.00;100451.88;7391457;19;20018;-87
2023/06/23 03:35:16;;;;;;;0.68;0.40;;;;;;;16.19;100.00;100456.00;7389219;19;20050;-87
2023/06/23 03:37:50;;;;;;;1.63;0.50;;;;;;;16.62;100.00;100454.78;7394127;19;20083;-86
2023/06/23 03:40:20;;;;;;;2.15;0.85;;;;;;;15.15;100.00;100459.28;7392476;19;20042;-87
2023/06/23 03:42:58;;;;;;;1.48;0.38;;;;;;;14.59;100.00;100463.41;7397793;19;20392;-87
2023/06/23 03:45:25;;;;;;;1.52;0.68;;;;;;;14.43;100.00;100467.53;7396048;19;20353;-87
2023/06/23 03:47:58;;;;;;;1.55;1.05;;;;;;;15.14;100.00;100474.56;7395846;19;20375;-87
2023/06/23 03:50:28;;;;;;;0.45;0.35;;;;;;;15.78;100.00;100474.28;7399792;19;20006;-86
2023/06/23 03:52:57;;;;;;;3.13;0.95;;;;;;;16.25;100.00;100479.28;7398464;19;20654;-87
2023/06/23 03:55:26;;;;;;;0.65;0.65;;;;;;;16.35;100.00;100482.69;7396499;19;20054;-87
2023/06/23 03:57:54;;;;;;;1.17;0.30;;;;;;;15.99;100.00;100481.38;7396991;19;20022;-87
2023/06/23 04:00:21;;;;;;;2.53;0.63;;;;;;;16.72;100.00;100482.69;7400092;19;20022;-87
2023/06/23 04:02:50;;;;;;;3.85;0.75;;;;;;;17.74;100.00;100467.97;7398645;19;20038;-87
2023/06/23 04:05:17;;;;;;;1.35;0.73;;;;;;;16.76;100.00;100480.41;7404402;19;20025;-87
2023/06/23 04:07:45;;;;;;;2.28;0.30;;;;;;;16.09;100.00;100484.78;7410862;19;20027;-87
2023/06/23 04:10:15;;;;;;;1.17;0.50;;;;;;;16.07;100.00;100492.94;7404379;19;20143;-87
2023/06/23 04:12:42;;;;;;;1.15;0.47;;;;;;;16.60;100.00;100496.69;7398277;19;20018;-87
2023/06/23 04:15:10;;;;;;;8.57;1.15;;;;;;;16.31;100.00;100493.38;7397020;19;20051;-87
2023/06/23 04:17:40;;;;;;;2.05;0.57;;;;;;;16.20;100.00;100488.44;7397951;19;20034;-88
2023/06/23 04:20:09;;;;;;;1.50;0.37;;;;;;;18.79;100.00;100470.00;7397002;19;20093;-87
2023/06/23 04:22:38;;;;;;;1.90;0.75;;;;;;;16.97;100.00;100474.13;7397472;19;20367;-87
2023/06/23 04:25:06;;;;;;;3.40;0.90;;;;;;;30.52;97.96;100459.69;7396177;19;20015;-87
2023/06/23 04:27:36;;;;;;;1.30;0.35;;;;;;;35.64;59.03;100448.91;7397667;19;20010;-88
2023/06/23 04:30:05;;;;;;;3.40;0.52;;;;;;;18.89;100.00;100474.84;7398648;19;20018;-87
2023/06/23 04:32:34;;;;;;;0.90;0.73;;;;;;;17.50;100.00;100480.97;7395925;19;20011;-88
2023/06/23 04:35:00;;;;;;;1.63;0.63;;;;;;;17.44;100.00;100489.41;7396095;19;20018;-88
2023/06/23 04:37:43;;;;;;;1.30;0.60;;;;;;;16.71;100.00;100490.34;7400129;19;20015;-88
2023/06/23 04:40:44;;;;;;;0.70;0.47;;;;;;;16.39;100.00;100502.91;7398023;19;20016;-88
2023/06/23 04:43:31;;;;;;;0.50;0.32;;;;;;;16.42;100.00;100502.66;7397136;19;20338;-88
2023/06/23 04:46:02;;;;;;;3.60;1.75;;;;;;;16.81;100.00;100488.88;7394585;19;20020;-88
2023/06/23 04:48:38;;;;;;;0.73;0.40;;;;;;;16.22;100.00;100488.69;7394974;19;20018;-88
2023/06/23 04:51:08;;;;;;;3.13;1.27;;;;;;;16.00;100.00;100490.56;7399770;19;20018;-87
2023/06/23 04:53:45;;;;;;;1.45;0.38;;;;;;;16.48;100.00;100488.66;7396074;19;20074;-88
2023/06/23 04:56:15;;;;;;;0.73;0.15;;;;;;;16.53;100.00;100494.34;7396125;19;20456;-87
2023/06/23 04:58:45;;;;;;;2.08;0.80;;;;;;;16.50;100.00;100481.28;7394541;19;20456;-88
2023/06/23 05:01:12;;;;;;;0.90;0.87;;;;;;;16.28;100.00;100486.72;7397164;19;20018;-88
2023/06/23 05:03:39;;;;;;;0.55;0.40;;;;;;;15.51;100.00;100480.38;7396134;19;20038;-88
2023/06/23 05:06:07;;;;;;;6.18;0.32;;;;;;;16.27;100.00;100485.16;7395219;19;20331;-88
2023/06/23 05:08:34;;;;;;;5.70;0.73;;;;;;;15.95;100.00;100486.44;7394326;19;20014;-87
2023/06/23 05:11:05;;;;;;;3.20;1.05;;;;;;;16.14;100.00;100482.00;7398570;19;20017;-89
2023/06/23 05:13:33;;;;;;;3.67;1.17;;;;;;;16.93;100.00;100481.28;7394932;19;20022;-88
2023/06/23 05:16:02;;;;;;;2.05;0.80;;;;;;;17.15;100.00;100472.94;7392748;19;20349;-88
2023/06/23 05:18:30;;;;;;;2.50;0.57;;;;;;;16.28;100.00;100474.72;7395761;19;20476;-88
2023/06/23 05:20:59;;;;;;;2.45;0.82;;;;;;;16.18;100.00;100478.94;7397202;19;20010;-88
2023/06/23 05:23:27;;;;;;;5.50;0.82;;;;;;;16.18;100.00;100478.94;7396479;19;20019;-88
2023/06/23 05:25:56;;;;;;;1.20;0.90;;;;;;;15.77;100.00;100486.78;7393923;19;20117;-87
2023/06/23 05:28:26;;;;;;;4.43;1.45;;;;;;;15.75;100.00;100490.09;7393031;19;20014;-89
2023/06/23 05:30:56;;;;;;;1.25;0.77;;;;;;;15.49;100.00;100510.97;7396572;19;20025;-88
2023/06/23 05:33:24;;;;;;;0.97;0.40;;;;;;;15.43;100.00;100505.31;7395947;19;20105;-89
2023/06/23 05:35:52;;;;;;;2.20;1.38;;;;;;;15.48;100.00;100501.03;7394569;19;20086;-89
2023/06/23 05:38:21;;;;;;;7.43;1.90;;;;;;;16.06;100.00;100500.59;7399477;19;20361;-88
2023/06/23 05:40:47;;;;;;;3.45;0.88;;;;;;;15.99;100.00;100497.44;7395480;19;20015;-88
2023/06/23 05:43:13;;;;;;;0.57;0.45;;;;;;;15.25;100.00;100502.00;7395325;19;20030;-88
2023/06/23 05:45:39;;;;;;;1.77;0.95;;;;;;;15.61;100.00;100507.03;7392242;19;20021;-89
2023/06/23 05:48:28;;;;;;;0.40;0.40;;;;;;;15.73;100.00;100505.88;7393722;19;20464;-90
2023/06/23 05:50:57;;;;;;;1.73;0.65;;;;;;;16.27;100.00;100495.63;7395638;19;20085;-89
2023/06/23 05:53:26;;;;;;;1.65;1.10;;;;;;;16.29;100.00;100499.50;7395298;19;20014;-90
2023/06/23 05:56:04;;;;;;;7.40;0.85;;;;;;;15.95;100.00;100494.88;7393054;19;20014;-89
2023/06/23 05:58:33;;;;;;;2.80;0.60;;;;;;;15.79;100.00;100503.91;7395041;19;20301;-89
2023/06/23 06:01:04;;;;;;;3.17;0.73;;;;;;;16.17;100.00;100492.25;7393985;19;20023;-89
2023/06/23 06:03:35;;;;;;;;;;;;;;;16.75;100.00;100481.69;7393953;19;20014;-89
2023/06/23 06:06:04;;;;;;;;;;;;;;;16.22;100.00;100480.28;7393105;19;20357;-88
2023/06/23 06:08:32;;;;;;;1.42;0.45;;;;;;;16.38;100.00;100479.63;7391986;19;19914;-89
2023/06/23 06:11:00;;;;;;;4.53;0.98;;;;;;;17.57;100.00;100475.63;7393819;19;20056;-89
2023/06/23 06:13:29;;;;;;;3.60;0.82;;;;;;;19.26;100.00;100465.94;7394488;19;20022;-89
2023/06/23 06:15:57;;;;;;;5.13;1.40;;;;;;;17.35;100.00;100469.91;7391301;19;20110;-89
2023/06/23 06:18:24;;;;;;;2.45;1.05;;;;;;;16.10;100.00;100501.13;7394088;19;20102;-89
2023/06/23 06:20:52;;;;;;;1.25;0.50;;;;;;;17.87;100.00;100499.25;7394425;19;20349;-89
2023/06/23 06:23:20;;;;;;;1.20;0.77;;;;;;;17.55;100.00;100497.13;7394499;19;20014;-89
2023/06/23 06:25:49;;;;;;;2.88;0.60;;;;;;;17.42;100.00;100497.59;7394620;19;20446;-89
2023/06/23 06:28:18;;;;;;;1.38;0.85;;;;;;;18.27;100.00;100500.03;7393922;19;20018;-89
2023/06/23 06:30:45;;;;;;;4.13;0.88;;;;;;;20.29;100.00;100495.38;7393548;19;20019;-90
2023/06/23 06:33:13;;;;;;;4.18;0.60;;;;;;;20.13;100.00;100494.19;7393682;19;20160;-89
2023/06/23 06:35:41;;;;;;;1.05;0.70;;;;;;;20.05;100.00;100492.47;7391398;19;20018;-89
2023/06/23 06:38:10;;;;;;;1.08;0.50;;;;;;;30.47;94.18;100478.00;7395654;19;20011;-89
2023/06/23 06:40:38;;;;;;;4.82;0.95;;;;;;;23.79;100.00;100488.63;7391328;19;20026;-89
2023/06/23 06:43:04;;;;;;;5.13;1.60;;;;;;;18.35;100.00;100503.88;7393488;19;20021;-90
2023/06/23 06:45:31;;;;;;;1.75;0.63;;;;;;;19.24;100.00;100508.06;7391994;19;20030;-89
2023/06/23 06:47:58;;;;;;;1.67;0.70;;;;;;;23.85;100.00;100504.25;7396042;19;20035;-89
2023/06/23 06:50:26;;;;;;;3.47;1.00;;;;;;;19.84;100.00;100528.84;7393545;19;20030;-89
2023/06/23 06:52:54;;;;;;;4.75;0.73;;;;;;;18.35;100.00;100515.94;7392377;19;20033;-89
2023/06/23 06:55:21;;;;;;;9.57;0.85;;;;;;;17.78;100.00;100524.84;7392141;19;20038;-89
2023/06/23 06:57:48;;;;;;;7.13;0.73;;;;;;;18.17;100.00;100528.50;7391243;19;20015;-89
2023/06/23 07:00:19;;;;;;;1.92;0.73;;;;;;;18.47;100.00;100528.03;7396557;19;20074;-88
2023/06/23 07:02:46;;;;;;;0.43;0.40;;;;;;;19.37;100.00;100536.53;7391933;19;20015;-89
2023/06/23 07:05:13;;;;;;;2.85;1.33;;;;;;;18.74;100.00;100538.50;7391106;19;20437;-85
2023/06/23 07:07:39;;;;;;;6.35;1.00;;;;;;;17.89;100.00;100547.41;7393079;19;20472;-86
2023/06/23 07:10:06;;;;;;;5.53;1.02;;;;;;;17.87;100.00;100533.06;7387885;19;20086;-85
2023/06/23 07:12:33;;;;;;;4.47;1.25;;;;;;;17.96;100.00;100546.91;7392990;19;20484;-86
2023/06/23 07:14:59;;;;;;;3.55;1.00;;;;;;;18.78;100.00;100544.63;7388492;19;20025;-86
2023/06/23 07:17:26;;;;;;;4.00;1.10;;;;;;;18.40;100.00;100534.13;7394668;19;20018;-86
2023/06/23 07:19:52;;;;;;;4.28;0.98;;;;;;;18.68;100.00;100543.38;7398762;19;20015;-86
2023/06/23 07:22:19;;;;;;;2.72;0.88;;;;;;;18.38;100.00;100545.16;7396828;19;20015;-86
2023/06/23 07:24:45;;;;;;;3.42;0.57;;;;;;;18.68;100.00;100543.38;7400087;19;20044;-86
2023/06/23 07:27:14;;;;;;;3.90;0.85;;;;;;;18.97;100.00;100536.41;7398796;19;20023;-86
2023/06/23 07:29:41;;;;;;;1.98;0.90;;;;;;;18.89;100.00;100534.09;7396634;19;20018;-86
2023/06/23 07:32:08;;;;;;;3.20;0.75;;;;;;;19.23;100.00;100537.59;7399195;19;20014;-85
2023/06/23 07:34:34;;;;;;;3.53;1.13;;;;;;;18.94;100.00;100532.56;7396519;19;20482;-86
2023/06/23 07:37:00;;;;;;;2.38;0.55;;;;;;;19.64;100.00;100524.31;7401728;19;20029;-85
2023/06/23 07:39:27;;;;;;;2.28;1.00;;;;;;;19.00;100.00;100535.34;7398320;19;20100;-86
2023/06/23 07:41:53;;;;;;;1.33;0.45;;;;;;;19.23;100.00;100526.28;7398556;19;20026;-86
2023/06/23 07:44:21;;;;;;;1.75;0.63;;;;;;;20.47;100.00;100519.38;7397654;19;20085;-85
2023/06/23 07:46:47;;;;;;;3.35;0.52;;;;;;;19.77;100.00;100528.66;7400525;19;20026;-86
2023/06/23 07:49:13;;;;;;;3.63;1.17;;;;;;;19.86;100.00;100531.91;7394510;19;20025;-86
2023/06/23 07:51:39;;;;;;;3.53;1.40;;;;;;;21.37;100.00;100540.59;7397543;19;20086;-86
2023/06/23 07:54:05;;;;;;;2.35;1.30;;;;;;;20.68;100.00;100543.88;7395397;19;20018;-86
2023/06/23 07:56:31;;;;;;;1.08;0.52;;;;;;;20.86;100.00;100543.19;7397566;19;20014;-85
2023/06/23 07:58:57;;;;;;;3.70;1.02;;;;;;;21.83;100.00;100531.75;7396355;19;20084;-85
2023/06/23 08:01:23;;;;;;;4.35;0.75;;;;;;;23.01;100.00;100534.97;7402350;19;20026;-85
2023/06/23 08:03:50;;;;;;;2.85;0.90;;;;;;;21.32;100.00;100532.94;7399827;19;20015;-85
2023/06/23 08:06:23;;;;;;;2.50;0.88;;;;;;;20.67;100.00;100530.28;7400680;19;20013;-86
2023/06/23 08:08:51;;;;;;;7.18;0.85;;;;;;;20.30;100.00;100528.03;7398074;19;20019;-85
2023/06/23 08:11:17;;;;;;;1.60;0.82;;;;;;;28.22;100.00;100525.91;7399600;19;20014;-85
2023/06/23 08:13:44;;;;;;;2.95;0.40;;;;;;;22.32;100.00;100538.75;7399604;19;20503;-86
2023/06/23 08:16:10;;;;;;;3.33;0.75;;;;;;;31.14;100.00;100529.94;7395553;19;20047;-85
2023/06/23 08:18:36;;;;;;;2.92;0.30;;;;;;;21.86;100.00;100544.88;7399260;19;20489;-85
2023/06/23 08:21:03;;;;;;;3.92;0.95;;;;;;;21.18;100.00;100551.88;7394920;19;20019;-85
2023/06/23 08:23:29;;;;;;;4.35;1.48;;;;;;;21.15;100.00;100535.97;7394678;19;20102;-85
2023/06/23 08:25:55;;;;;;;1.40;0.60;;;;;;;21.40;100.00;100540.28;7391742;19;20023;-84
2023/06/23 08:28:21;;;;;;;3.22;0.63;;;;;;;20.56;100.00;100542.47;7390225;19;20369;-84
2023/06/23 08:30:47;;;;;;;3.47;0.75;;;;;;;20.45;100.00;100548.22;7396911;19;20010;-85
2023/06/23 08:33:13;;;;;;;1.67;0.43;;;;;;;20.37;100.00;100531.06;7400539;19;20021;-84
2023/06/23 08:35:39;;;;;;;0.85;0.47;;;;;;;20.75;100.00;100545.38;7398643;19;20018;-84
2023/06/23 08:38:05;;;;;;;2.17;0.80;;;;;;;26.18;100.00;100543.50;7400033;19;20043;-84
2023/06/23 08:40:32;;;;;;;3.85;1.27;;;;;;;27.55;100.00;100530.63;7398967;19;20353;-85
2023/06/23 08:42:59;;;;;;;4.53;1.15;;;;;;;22.10;100.00;100539.09;7397967;19;20025;-85
2023/06/23 08:45:27;;;;;;;2.28;0.90;;;;;;;21.02;100.00;100545.09;7393327;19;20030;-85
2023/06/23 08:47:57;;;;;;;0.22;0.10;;;;;;;21.73;100.00;100536.25;7394922;19;20018;-84
2023/06/23 08:50:23;;;;;;;2.25;1.02;;;;;;;20.83;100.00;100540.69;7395360;19;20370;-84
2023/06/23 08:52:49;;;;;;;2.25;0.50;;;;;;;20.77;100.00;100540.72;7394491;19;20106;-85
2023/06/23 08:55:16;;;;;;;0.93;0.50;;;;;;;20.70;100.00;100532.81;7395044;19;20011;-85
2023/06/23 08:57:42;;;;;;;2.25;0.80;;;;;;;20.61;100.00;100538.06;7396003;19;20014;-85
2023/06/23 09:00:08;;;;;;;6.13;1.17;;;;;;;20.93;100.00;100536.97;7394027;19;20614;-85
2023/06/23 09:02:34;;;;;;;0.88;0.38;;;;;;;20.92;100.00;100540.31;7393563;19;20014;-85
2023/06/23 09:05:00;;;;;;;2.33;0.73;;;;;;;21.67;100.00;100535.56;7392215;19;20014;-85
2023/06/23 09:07:28;;;;;;;1.17;0.45;;;;;;;21.77;100.00;100539.53;7395258;19;20057;-86
2023/06/23 09:09:55;;;;;;;1.33;0.68;;;;;;;21.66;100.00;100539.69;7393722;19;20019;-86
2023/06/23 09:12:23;;;;;;;1.23;0.70;;;;;;;21.69;100.00;100538.63;7398296;19;20018;-85
2023/06/23 09:14:50;;;;;;;6.32;1.02;;;;;;;21.29;100.00;100540.44;7393794;19;20029;-86
2023/06/23 09:17:18;;;;;;;3.58;0.70;;;;;;;21.21;100.00;100550.06;7394848;19;20022;-86
2023/06/23 09:19:49;;;;;;;1.33;0.65;;;;;;;21.93;100.00;100552.75;7395266;19;20026;-86
2023/06/23 09:22:22;;;;;;;0.75;0.75;;;;;;;21.43;100.00;100555.47;7399721;19;20074;-87
2023/06/23 09:24:49;;;;;;;1.80;1.05;;;;;;;21.64;100.00;100560.09;7392928;19;20398;-86
2023/06/23 09:27:15;;;;;;;1.48;0.65;;;;;;;21.40;100.00;100556.53;7393075;19;20341;-84
2023/06/23 09:29:42;;;;;;;0.57;0.40;;;;;;;21.49;100.00;100559.00;7391970;19;20010;-84
2023/06/23 09:32:09;;;;;;;0.75;0.43;;;;;;;21.67;100.00;100561.09;7395719;19;20014;-85
2023/06/23 09:34:38;;;;;;;7.10;1.60;;;;;;;21.77;100.00;100557.34;7392063;19;20042;-86
2023/06/23 09:37:10;;;;;;;1.40;0.30;;;;;;;21.90;100.00;100553.81;7394440;19;20525;-85
2023/06/23 09:39:38;;;;;;;0.45;0.20;;;;;;;22.02;100.00;100560.88;7397414;19;20093;-85
2023/06/23 09:42:11;;;;;;;1.30;0.32;;;;;;;22.05;100.00;100559.78;7397576;19;20038;-85
2023/06/23 09:44:45;;;;;;;2.30;0.30;;;;;;;22.32;100.00;100550.09;7393356;19;20014;-85
2023/06/23 09:47:14;;;;;;;0.80;0.28;;;;;;;22.60;100.00;100558.94;7392532;19;20018;-85
2023/06/23 09:49:42;;;;;;;0.65;0.32;;;;;;;22.39;100.00;100566.47;7392315;19;20022;-87
2023/06/23 09:52:12;;;;;;;4.35;0.80;;;;;;;22.27;100.00;100565.13;7397735;19;20045;-85
2023/06/23 09:54:41;;;;;;;2.92;0.45;;;;;;;21.92;100.00;100576.75;7393707;19;20038;-86
2023/06/23 09:57:09;;;;;;;0.95;0.35;;;;;;;22.01;100.00;100562.19;7394493;19;20032;-86
2023/06/23 09:59:44;;;;;;;5.05;0.55;;;;;;;22.02;100.00;100558.06;7392263;19;20014;-86
2023/06/23 10:02:30;;;;;;;0.77;0.45;;;;;;;22.10;100.00;100563.84;7397398;19;20361;-86
2023/06/23 10:05:02;;;;;;;1.17;0.93;;;;;;;22.40;100.00;100561.56;7393629;19;20031;-88
2023/06/23 10:07:29;;;;;;;4.18;0.50;;;;;;;22.03;100.00;100568.06;7393457;19;20022;-86
2023/06/23 10:10:07;;;;;;;0.98;0.20;;;;;;;22.00;100.00;100565.56;7391615;19;20595;-87
2023/06/23 10:12:36;;;;;;;1.08;0.57;;;;;;;22.09;100.00;100571.59;7392541;19;20040;-87
2023/06/23 10:15:02;;;;;;;1.05;0.35;;;;;;;22.41;100.00;100566.72;7391675;19;20039;-89
2023/06/23 10:17:28;;;;;;;1.15;0.60;;;;;;;22.29;100.00;100571.03;7393845;19;20018;-87
2023/06/23 10:19:55;;;;;;;0.73;0.20;;;;;;;22.30;100.00;100569.75;7391298;19;20082;-93
2023/06/23 10:22:21;;;;;;;0.90;0.70;;;;;;;22.26;100.00;100569.25;7397317;19;20018;-88
2023/06/23 10:24:52;;;;;;;1.27;0.50;;;;;;;22.32;100.00;100574.88;7392191;19;20010;-89
2023/06/23 10:27:24;;;;;;;2.50;0.52;;;;;;;22.25;100.00;100581.94;7394889;19;20041;-88
2023/06/23 10:29:55;;;;;;;1.30;0.38;;;;;;;22.40;100.00;100570.09;7391050;19;20416;-90
2023/06/23 10:32:34;;;;;;;2.95;0.70;;;;;;;22.53;100.00;100570.13;7397983;19;20019;-86
2023/06/23 10:35:07;;;;;;;0.68;0.30;;;;;;;22.41;100.00;100558.22;7390235;19;20030;-87
2023/06/23 10:37:33;;;;;;;2.63;0.65;;;;;;;22.47;100.00;100560.94;7393870;19;20022;-87
2023/06/23 10:40:03;;;;;;;3.17;0.68;;;;;;;22.90;100.00;100552.22;7392019;19;20030;-88
2023/06/23 10:42:33;;;;;;;2.08;0.65;;;;;;;23.04;100.00;100550.94;7398052;19;20018;-88
2023/06/23 10:45:01;;;;;;;2.35;0.73;;;;;;;22.91;100.00;100548.06;7390309;19;20047;-87
2023/06/23 10:47:27;;;;;;;1.42;0.43;;;;;;;23.07;100.00;100544.13;7391727;19;20014;-89
2023/06/23 10:49:55;;;;;;;2.55;0.73;;;;;;;23.33;100.00;100542.09;7391402;19;20011;-91
2023/06/23 10:52:22;;;;;;;0.93;0.30;;;;;;;23.94;100.00;100542.84;7396220;19;20015;-88
2023/06/23 10:54:49;;;;;;;1.52;0.38;;;;;;;24.38;100.00;100533.28;7390244;19;20033;-87
2023/06/23 10:57:15;;;;;;;1.48;0.63;;;;;;;23.91;100.00;100533.31;7390887;19;20022;-87
2023/06/23 11:00:05;;;;;;;1.40;0.63;;;;;;;23.78;100.00;100544.75;7392268;19;20030;-88
2023/06/23 11:02:52;;;;;;;;;;;;;;;23.66;100.00;100546.31;7397901;19;20007;-88
2023/06/23 11:05:18;;;;;;;3.13;0.30;;;;;;;23.92;100.00;100534.09;7392854;19;19922;-89
2023/06/23 11:08:04;;;;;;;4.57;0.50;;;;;;;24.02;100.00;100541.59;7395466;19;20369;-88
2023/06/23 11:10:51;;;;;;;0.73;0.20;;;;;;;24.04;100.00;100539.00;7393401;19;20014;-92
2023/06/23 11:13:17;;;;;;;5.68;0.70;;;;;;;23.95;100.00;100528.06;7392817;19;20127;-91
2023/06/23 11:16:00;;;;;;;3.22;0.73;;;;;;;24.07;100.00;100532.22;7392049;19;20011;-91
2023/06/23 11:18:26;;;;;;;1.13;0.45;;;;;;;24.15;100.00;100534.38;7392387;19;20021;-88
2023/06/23 11:20:54;;;;;;;0.98;0.40;;;;;;;24.22;100.00;100530.81;7392506;19;20022;-90
2023/06/23 11:23:21;;;;;;;1.52;0.45;;;;;;;24.33;100.00;100534.16;7392871;19;20082;-90
2023/06/23 11:25:49;;;;;;;0.82;0.43;;;;;;;24.34;100.00;100532.09;7389485;19;20496;-89
2023/06/23 11:28:30;;;;;;;0.65;0.10;;;;;;;24.49;100.00;100537.94;7391778;19;20014;-90
2023/06/23 11:31:15;;;;;;;0.80;0.20;;;;;;;24.57;100.00;100533.81;7394507;19;20021;-90